Time;durP1;ratioP1;P1;durP2;ratioP2;P2;SDS_P1;SDS_P2;PMS_P1;PMS_P2;Temp;Humidity;BMP_temperature;BMP_pressure;BME280_temperature;BME280_humidity;BME280_pressure;Samples;Min_cycle;Max_cycle;Signal;HPM_P1;HPM_P2
2022/11/06 05:00:29;;;;;;;11.53;7.10;;;5.10;99.90;;;;;;6150952;23;20474;31
2022/11/06 05:02:58;;;;;;;10.97;6.10;;;5.10;99.90;;;;;;4946532;28;20466;-73
2022/11/06 05:05:26;;;;;;;9.70;6.67;;;5.00;99.90;;;;;;4947895;29;20465;-74
2022/11/06 05:07:52;;;;;;;9.20;7.13;;;5.00;99.90;;;;;;4948244;28;21216;-73
2022/11/06 05:10:19;;;;;;;13.63;8.20;;;5.00;99.90;;;;;;4948962;28;21000;-74
2022/11/06 05:12:47;;;;;;;9.10;7.00;;;5.00;99.90;;;;;;4948774;29;20457;-74
2022/11/06 05:15:14;;;;;;;10.70;7.37;;;5.00;99.90;;;;;;4948438;29;20801;-74
2022/11/06 05:17:41;;;;;;;11.20;7.03;;;4.90;99.90;;;;;;4949205;29;20465;-72
2022/11/06 05:20:10;;;;;;;10.10;6.77;;;4.90;99.90;;;;;;4947380;28;20477;-72
2022/11/06 05:22:59;;;;;;;8.43;6.20;;;4.90;99.90;;;;;;4949495;29;20449;-72
2022/11/06 05:25:27;;;;;;;8.40;6.00;;;4.90;99.90;;;;;;4929221;29;20836;-72
2022/11/06 05:27:54;;;;;;;12.20;6.67;;;4.90;99.90;;;;;;4930105;29;20458;-72
2022/11/06 05:30:21;;;;;;;9.20;7.10;;;4.80;99.90;;;;;;4929095;29;20467;-72
2022/11/06 05:32:47;;;;;;;7.40;5.97;;;4.80;99.90;;;;;;4929473;29;20466;-72
2022/11/06 05:35:16;;;;;;;8.63;6.70;;;4.80;99.90;;;;;;4929006;29;20466;-74
2022/11/06 05:37:43;;;;;;;9.83;7.07;;;4.80;99.90;;;;;;4929627;29;20473;-74
2022/11/06 05:40:11;;;;;;;10.17;7.07;;;4.70;99.90;;;;;;4941531;29;20468;-74
2022/11/06 05:42:38;;;;;;;11.07;6.70;;;4.70;99.90;;;;;;4949022;29;20450;-73
2022/11/06 05:45:06;;;;;;;10.50;6.67;;;4.70;99.90;;;;;;4947830;29;20994;-72
2022/11/06 05:47:33;;;;;;;10.90;7.60;;;4.70;99.90;;;;;;4948615;29;20457;-72
2022/11/06 05:50:00;;;;;;;12.40;7.50;;;4.70;99.90;;;;;;4948601;29;20488;-71
2022/11/06 05:52:28;;;;;;;9.97;7.13;;;4.70;99.90;;;;;;4948663;28;20501;-71
2022/11/06 05:54:55;;;;;;;9.83;6.57;;;4.70;99.90;;;;;;4948046;29;20966;-72
2022/11/06 05:57:21;;;;;;;9.70;6.50;;;4.70;99.90;;;;;;4948399;29;20950;-72
2022/11/06 05:59:48;;;;;;;9.70;6.40;;;4.70;99.90;;;;;;4948406;29;21448;-71
2022/11/06 06:02:15;;;;;;;9.43;6.60;;;4.70;99.90;;;;;;4948288;28;20485;-72
2022/11/06 06:04:42;;;;;;;7.93;5.67;;;4.70;99.90;;;;;;4947812;29;20483;-72
2022/11/06 06:07:09;;;;;;;11.00;6.43;;;4.70;99.90;;;;;;4948255;29;20468;-72
2022/11/06 06:09:37;;;;;;;11.10;7.70;;;4.70;99.90;;;;;;4948504;29;20810;-72
2022/11/06 06:12:04;;;;;;;10.87;7.07;;;4.70;99.90;;;;;;4948533;28;20501;-72
2022/11/06 06:14:31;;;;;;;11.10;6.03;;;4.70;99.90;;;;;;4947179;28;20465;-72
2022/11/06 06:16:58;;;;;;;8.10;6.37;;;4.70;99.90;;;;;;4947905;29;20468;-72
2022/11/06 06:19:25;;;;;;;8.63;6.13;;;4.80;99.90;;;;;;4948107;29;20461;-72
2022/11/06 06:21:52;;;;;;;25.80;6.63;;;4.70;99.90;;;;;;4948165;28;20499;-72
2022/11/06 06:24:18;;;;;;;13.53;6.50;;;4.70;99.90;;;;;;4947577;29;20493;-74
2022/11/06 06:26:47;;;;;;;7.60;6.43;;;4.70;99.90;;;;;;4948147;29;20461;-75
2022/11/06 06:29:13;;;;;;;30.20;6.80;;;4.60;99.90;;;;;;4948294;29;20468;-75
2022/11/06 06:31:40;;;;;;;7.50;5.70;;;4.60;99.90;;;;;;4948004;28;20505;-75
2022/11/06 06:34:07;;;;;;;9.30;6.03;;;4.60;99.90;;;;;;4947327;29;20469;-75
2022/11/06 06:36:34;;;;;;;11.93;6.83;;;4.60;99.90;;;;;;4947989;29;20462;-75
2022/11/06 06:39:01;;;;;;;8.80;6.10;;;4.50;99.90;;;;;;4948200;29;21111;-76
2022/11/06 06:41:27;;;;;;;10.13;6.87;;;4.50;99.90;;;;;;4947310;28;20997;-76
2022/11/06 06:43:55;;;;;;;11.57;6.63;;;4.50;99.90;;;;;;4948010;29;20476;-76
2022/11/06 06:46:22;;;;;;;12.80;7.10;;;4.50;99.90;;;;;;4947706;29;20468;-76
2022/11/06 06:48:49;;;;;;;10.50;7.07;;;4.50;99.90;;;;;;4948012;29;20472;-76
2022/11/06 06:51:16;;;;;;;27.67;8.40;;;4.50;99.90;;;;;;4947662;28;20508;-76
2022/11/06 06:53:43;;;;;;;16.67;8.83;;;4.50;99.90;;;;;;4947639;29;20468;-75
2022/11/06 06:56:09;;;;;;;12.13;7.73;;;4.50;99.90;;;;;;4946891;29;20470;-76
2022/11/06 06:58:36;;;;;;;12.77;8.40;;;4.50;99.90;;;;;;4947803;29;20465;-76
2022/11/06 07:01:09;;;;;;;11.20;7.53;;;4.60;99.90;;;;;;4947520;28;20485;-76
2022/11/06 07:03:36;;;;;;;12.17;7.20;;;4.50;99.90;;;;;;4947500;29;20453;-76
2022/11/06 07:06:03;;;;;;;10.47;7.83;;;4.60;99.90;;;;;;4946809;29;20457;-76
2022/11/06 07:08:30;;;;;;;45.50;9.87;;;4.60;99.90;;;;;;4947750;29;20472;-76
2022/11/06 07:11:01;;;;;;;12.43;8.23;;;4.50;99.90;;;;;;4947794;28;20488;-76
2022/11/06 07:13:28;;;;;;;12.27;8.33;;;4.50;99.90;;;;;;4947854;29;20468;-77
2022/11/06 07:15:55;;;;;;;14.90;8.90;;;4.50;99.90;;;;;;4946953;28;21077;-76
2022/11/06 07:18:24;;;;;;;17.83;8.60;;;4.50;99.90;;;;;;4947400;29;20461;-76
2022/11/06 07:20:51;;;;;;;15.93;8.13;;;4.50;99.90;;;;;;4947274;28;20477;-77
2022/11/06 07:23:18;;;;;;;26.33;7.50;;;4.60;99.90;;;;;;4961482;28;20819;-76
2022/11/06 07:25:44;;;;;;;7.63;5.70;;;4.50;99.90;;;;;;4959455;28;20472;-76
2022/11/06 07:28:11;;;;;;;9.77;6.33;;;4.50;99.90;;;;;;4950360;28;20465;-76
2022/11/06 07:30:38;;;;;;;34.00;6.00;;;4.50;99.90;;;;;;4950611;28;20473;-77
2022/11/06 07:33:05;;;;;;;49.77;7.23;;;4.60;99.90;;;;;;4951006;28;20501;-77
2022/11/06 07:35:35;;;;;;;22.57;6.43;;;4.60;99.90;;;;;;4950531;28;20461;-76
2022/11/06 07:38:04;;;;;;;20.37;6.10;;;4.60;99.90;;;;;;4951105;28;20515;-76
2022/11/06 07:40:31;;;;;;;16.00;6.60;;;4.60;99.90;;;;;;4950981;28;20501;-76
2022/11/06 07:43:04;;;;;;;23.47;6.33;;;4.60;99.90;;;;;;4951678;28;20831;-76
2022/11/06 07:45:32;;;;;;;41.33;7.67;;;4.70;99.90;;;;;;4950543;28;20446;-76
2022/11/06 07:47:59;;;;;;;23.17;6.50;;;4.70;99.90;;;;;;4951051;28;20473;-76
2022/11/06 07:50:26;;;;;;;24.53;7.67;;;4.70;99.90;;;;;;4950840;28;20475;-74
2022/11/06 07:52:55;;;;;;;10.77;7.83;;;4.60;99.90;;;;;;4951176;28;20504;-76
2022/11/06 07:55:22;;;;;;;14.50;6.70;;;4.70;99.90;;;;;;4950286;28;20472;-76
2022/11/06 07:57:49;;;;;;;9.27;6.30;;;4.80;99.90;;;;;;4950915;28;20468;-76
2022/11/06 08:00:16;;;;;;;12.30;6.57;;;4.90;99.90;;;;;;4950733;28;20476;-74
2022/11/06 08:02:43;;;;;;;17.70;7.23;;;4.90;99.90;;;;;;4950731;28;20465;-75
2022/11/06 08:05:10;;;;;;;12.20;8.80;;;5.00;99.90;;;;;;4950029;28;20457;-76
2022/11/06 08:07:37;;;;;;;12.53;8.20;;;5.00;99.90;;;;;;4951609;28;20958;-75
2022/11/06 08:10:06;;;;;;;11.50;7.33;;;5.00;99.90;;;;;;4951581;28;20954;-77
2022/11/06 08:12:33;;;;;;;10.23;6.90;;;5.00;99.90;;;;;;4951175;28;20497;-75
2022/11/06 08:14:59;;;;;;;20.53;10.47;;;5.10;99.90;;;;;;4950224;28;20461;-76
2022/11/06 08:17:28;;;;;;;11.30;7.70;;;5.20;99.90;;;;;;4950399;29;20458;-77
2022/11/06 08:19:55;;;;;;;21.33;14.13;;;5.30;99.90;;;;;;4950079;28;20473;-76
2022/11/06 08:22:22;;;;;;;23.13;14.97;;;5.40;99.90;;;;;;4950992;28;20476;-76
2022/11/06 08:24:49;;;;;;;19.90;12.00;;;5.40;99.90;;;;;;4950994;29;20454;-77
2022/11/06 08:27:17;;;;;;;25.97;17.00;;;5.50;99.90;;;;;;4951060;29;20457;-75
2022/11/06 08:29:44;;;;;;;28.63;16.47;;;5.60;99.90;;;;;;4950194;29;20461;-75
2022/11/06 08:32:10;;;;;;;24.33;14.37;;;5.70;99.90;;;;;;4950334;28;20867;-76
2022/11/06 08:34:37;;;;;;;21.17;13.73;;;5.80;99.90;;;;;;4949126;29;21147;-75
2022/11/06 08:37:04;;;;;;;20.97;11.10;;;5.90;99.90;;;;;;4949623;28;20796;-75
2022/11/06 08:39:31;;;;;;;18.77;11.73;;;6.10;99.90;;;;;;4949780;28;20473;-76
2022/11/06 08:41:58;;;;;;;27.20;13.90;;;6.10;99.90;;;;;;4949822;28;20478;-75
2022/11/06 08:44:26;;;;;;;21.40;12.27;;;6.30;99.90;;;;;;4948944;29;20465;-76
2022/11/06 08:46:55;;;;;;;20.10;11.83;;;6.30;99.90;;;;;;4949869;29;20461;-74
2022/11/06 08:49:21;;;;;;;18.00;11.70;;;6.40;99.90;;;;;;4950073;29;20461;-77
2022/11/06 08:51:48;;;;;;;19.50;12.10;;;6.50;99.90;;;;;;4949769;28;20505;-76
2022/11/06 08:54:15;;;;;;;17.17;11.20;;;6.60;99.90;;;;;;4948954;29;20453;-75
2022/11/06 08:56:42;;;;;;;17.50;9.80;;;6.80;99.90;;;;;;4949575;29;20473;-74
2022/11/06 08:59:08;;;;;;;18.90;11.13;;;7.10;99.90;;;;;;4950041;28;20478;-75
2022/11/06 09:01:37;;;;;;;16.20;11.07;;;7.40;99.90;;;;;;4949178;28;20444;-76
2022/11/06 09:04:04;;;;;;;17.70;12.30;;;7.70;99.90;;;;;;4948436;29;20924;-75
2022/11/06 09:06:31;;;;;;;14.30;9.67;;;8.00;99.90;;;;;;4949420;28;20228;-64
2022/11/06 09:08:58;;;;;;;13.20;9.37;;;8.10;99.90;;;;;;4948113;29;20488;-64
2022/11/06 09:11:25;;;;;;;13.83;8.70;;;8.20;99.90;;;;;;4948181;28;20572;-64
2022/11/06 09:13:52;;;;;;;13.90;8.83;;;8.20;99.90;;;;;;4948582;29;20461;-64
2022/11/06 09:16:18;;;;;;;12.33;7.73;;;8.30;99.90;;;;;;4947947;29;20469;-64
2022/11/06 09:18:47;;;;;;;15.17;8.80;;;8.40;99.90;;;;;;4948848;29;20469;-64
2022/11/06 09:21:13;;;;;;;11.10;7.07;;;8.60;99.90;;;;;;4948462;28;20484;-64
2022/11/06 09:23:40;;;;;;;10.53;7.13;;;8.90;99.90;;;;;;4948180;29;21298;-76
2022/11/06 09:26:07;;;;;;;9.50;6.90;;;9.10;99.90;;;;;;4947736;29;20461;-76
2022/11/06 09:28:34;;;;;;;10.83;7.60;;;9.40;99.90;;;;;;4948279;29;21030;-76
2022/11/06 09:31:02;;;;;;;8.90;6.60;;;9.70;99.90;;;;;;4948015;28;20486;-76
2022/11/06 09:33:28;;;;;;;9.50;6.80;;;9.80;99.90;;;;;;4948089;29;20497;-76
2022/11/06 09:35:57;;;;;;;9.70;6.67;;;9.70;99.90;;;;;;4947367;29;20460;-76
2022/11/06 09:38:23;;;;;;;9.23;6.03;;;9.70;99.90;;;;;;4948344;29;20560;-76
2022/11/06 09:40:55;;;;;;;5.20;4.53;;;9.70;99.90;;;;;;4948247;28;20478;-77
2022/11/06 09:43:34;;;;;;;9.13;5.80;;;10.20;99.90;;;;;;4948739;29;20446;-76
2022/11/06 09:46:09;;;;;;;8.10;5.30;;;10.20;99.90;;;;;;4947682;29;20457;-76
2022/11/06 09:48:40;;;;;;;7.27;5.10;;;10.50;99.90;;;;;;4948662;28;20481;-76
2022/11/06 09:51:17;;;;;;;7.43;5.03;;;10.80;99.90;;;;;;4947539;28;20485;-76
2022/11/06 09:53:50;;;;;;;6.60;5.13;;;11.30;99.90;;;;;;4948585;29;20487;-76
2022/11/06 09:56:19;;;;;;;7.00;5.30;;;11.60;99.90;;;;;;4947832;29;21223;-77
2022/11/06 09:58:47;;;;;;;5.53;4.70;;;11.80;99.90;;;;;;4949091;28;20466;-76
2022/11/06 10:01:18;;;;;;;5.67;4.40;;;12.10;99.90;;;;;;4948582;28;20495;-77
2022/11/06 10:03:51;;;;;;;5.93;4.70;;;12.40;99.90;;;;;;4948777;29;20442;-76
2022/11/06 10:06:21;;;;;;;5.70;4.47;;;12.50;99.90;;;;;;4948106;29;20457;-77
2022/11/06 10:08:49;;;;;;;6.97;4.10;;;12.80;99.90;;;;;;4949105;29;20472;-77
2022/11/06 10:11:30;;;;;;;6.63;4.73;;;12.90;99.90;;;;;;4948751;28;20489;-78
2022/11/06 10:14:08;;;;;;;6.07;4.20;;;13.10;99.90;;;;;;4949564;29;20485;-76
2022/11/06 10:16:43;;;;;;;4.23;3.70;;;13.30;99.90;;;;;;4949083;29;20519;-76
2022/11/06 10:19:15;;;;;;;4.93;3.37;;;13.30;99.90;;;;;;4948401;29;20937;-76
2022/11/06 10:21:48;;;;;;;4.80;3.20;;;13.30;99.90;;;;;;4948045;28;21012;-77
2022/11/06 10:24:22;;;;;;;3.93;3.50;;;13.40;99.90;;;;;;4947310;29;20906;-76
2022/11/06 10:26:53;;;;;;;4.77;4.20;;;13.70;99.90;;;;;;4947484;29;20457;-76
2022/11/06 10:29:49;;;;;;;4.40;3.60;;;13.80;99.90;;;;;;4947896;29;20469;-76
2022/11/06 10:33:01;;;;;;;4.50;3.90;;;13.90;99.90;;;;;;4945609;28;20501;-76
2022/11/06 10:35:35;;;;;;;5.50;3.80;;;14.10;99.90;;;;;;4934655;28;20529;-76
2022/11/06 10:38:10;;;;;;;3.87;3.47;;;14.00;99.90;;;;;;4947861;29;20465;-76
2022/11/06 10:40:37;;;;;;;5.20;4.17;;;14.20;99.90;;;;;;4948222;28;20489;-76
2022/11/06 10:43:13;;;;;;;10.20;3.70;;;14.20;99.90;;;;;;4948055;29;20981;-76
2022/11/06 10:45:44;;;;;;;4.20;3.57;;;14.20;99.90;;;;;;4946755;29;20462;-76
2022/11/06 10:48:20;;;;;;;4.83;4.30;;;14.30;99.90;;;;;;4947916;29;20461;-76
2022/11/06 10:51:09;;;;;;;5.67;4.40;;;14.40;99.90;;;;;;4947595;28;20481;-74
2022/11/06 10:53:48;;;;;;;5.40;3.90;;;14.40;99.90;;;;;;4947589;29;20485;-76
2022/11/06 10:56:31;;;;;;;4.97;4.00;;;14.50;99.90;;;;;;4946862;29;21499;-76
2022/11/06 10:58:58;;;;;;;4.50;4.10;;;14.70;99.90;;;;;;4948034;29;20545;-76
2022/11/06 11:01:25;;;;;;;5.80;4.80;;;14.70;99.90;;;;;;4947348;28;20481;-76
2022/11/06 11:03:52;;;;;;;5.00;4.33;;;14.70;99.90;;;;;;4947480;29;20468;-76
2022/11/06 11:06:19;;;;;;;3.70;3.40;;;14.60;99.90;;;;;;4946869;29;21025;-76
2022/11/06 11:08:48;;;;;;;3.83;3.37;;;14.50;99.90;;;;;;4947905;29;20476;-76
2022/11/06 11:11:22;;;;;;;5.27;3.50;;;14.50;99.90;;;;;;4948069;28;20907;-76
2022/11/06 11:13:52;;;;;;;3.17;2.87;;;14.70;99.90;;;;;;4947868;29;20489;-74
2022/11/06 11:16:20;;;;;;;3.20;2.80;;;14.80;99.90;;;;;;4946696;29;20457;-75
2022/11/06 11:18:48;;;;;;;3.13;2.80;;;14.90;99.90;;;;;;4947796;29;20468;-75
2022/11/06 11:21:22;;;;;;;3.60;3.13;;;15.00;99.90;;;;;;4947595;28;20577;-75
2022/11/06 11:24:06;;;;;;;2.30;2.10;;;15.10;99.90;;;;;;4947132;29;20442;-75
2022/11/06 11:26:36;;;;;;;3.00;2.20;;;15.10;99.90;;;;;;4947265;29;20469;-75
2022/11/06 11:29:15;;;;;;;2.67;2.33;;;15.00;99.90;;;;;;4947226;29;20461;-75
2022/11/06 11:31:46;;;;;;;3.33;2.40;;;15.00;99.90;;;;;;4946954;28;20989;-75
2022/11/06 11:34:18;;;;;;;2.80;2.50;;;15.00;99.90;;;;;;4946918;29;20489;-75
2022/11/06 11:36:54;;;;;;;2.47;2.27;;;15.00;99.90;;;;;;4947637;29;20457;-75
2022/11/06 11:39:25;;;;;;;2.80;2.30;;;14.90;99.90;;;;;;4947159;29;20460;-75
2022/11/06 11:41:52;;;;;;;3.13;2.20;;;14.90;99.90;;;;;;4945434;28;20500;-75
2022/11/06 11:44:20;;;;;;;3.57;2.97;;;14.90;99.90;;;;;;4946592;29;20453;-75
2022/11/06 11:46:48;;;;;;;4.20;3.13;;;15.20;99.90;;;;;;4946888;29;20980;-75
2022/11/06 11:49:30;;;;;;;4.57;3.53;;;15.20;99.90;;;;;;4946971;29;20490;-75
2022/11/06 11:51:59;;;;;;;2.40;2.20;;;15.30;99.90;;;;;;4946881;28;20855;-75
2022/11/06 11:54:31;;;;;;;2.97;2.60;;;15.50;99.90;;;;;;4946509;29;20487;-75
2022/11/06 11:57:01;;;;;;;2.63;2.40;;;15.50;99.90;;;;;;4947010;29;20461;-75
2022/11/06 11:59:31;;;;;;;2.83;2.53;;;15.40;99.90;;;;;;4947214;29;20463;-75
2022/11/06 12:02:03;;;;;;;2.90;2.60;;;15.50;99.90;;;;;;4946950;28;20493;-75
2022/11/06 12:04:35;;;;;;;3.00;2.27;;;15.70;99.90;;;;;;4946149;29;21395;-75
2022/11/06 12:07:04;;;;;;;2.23;2.03;;;15.80;99.90;;;;;;4947069;29;20446;-76
2022/11/06 12:09:41;;;;;;;2.97;2.00;;;15.90;99.90;;;;;;4947121;29;20453;-75
2022/11/06 12:12:21;;;;;;;2.90;2.60;;;15.90;99.90;;;;;;4946722;28;20484;-75
2022/11/06 12:15:02;;;;;;;2.23;2.03;;;15.90;99.90;;;;;;4949603;29;20445;-75
2022/11/06 12:17:32;;;;;;;3.07;2.40;;;16.00;99.90;;;;;;4950473;28;20467;-75
2022/11/06 12:20:01;;;;;;;4.17;2.67;;;16.10;99.90;;;;;;4949871;29;20480;-75
2022/11/06 12:22:33;;;;;;;2.87;2.53;;;16.10;99.90;;;;;;4949910;28;20481;-75
2022/11/06 12:25:05;;;;;;;2.37;2.17;;;16.10;99.90;;;;;;4949602;29;20465;-75
2022/11/06 12:27:37;;;;;;;2.30;2.10;;;16.10;99.90;;;;;;4950493;29;20465;-75
2022/11/06 12:30:07;;;;;;;2.17;1.90;;;16.10;99.90;;;;;;4950197;29;20523;-75
2022/11/06 12:32:59;;;;;;;2.53;2.33;;;16.20;99.90;;;;;;4949940;28;20501;-75
2022/11/06 12:35:28;;;;;;;2.97;2.20;;;16.40;99.90;;;;;;4949636;28;20508;-77
2022/11/06 12:38:04;;;;;;;2.60;2.20;;;16.50;99.90;;;;;;4950421;29;20464;-76
2022/11/06 12:40:37;;;;;;;2.50;2.10;;;16.50;99.90;;;;;;4949878;28;20467;-77
2022/11/06 12:43:14;;;;;;;1.83;1.70;;;16.40;99.90;;;;;;4950349;29;20438;-76
2022/11/06 12:45:56;;;;;;;2.50;2.30;;;16.40;99.90;;;;;;4949239;29;20457;-76
2022/11/06 12:48:44;;;;;;;2.70;2.23;;;16.40;99.90;;;;;;4950173;29;20445;-76
2022/11/06 12:51:21;;;;;;;2.53;2.30;;;16.30;99.90;;;;;;4949818;28;20481;-76
2022/11/06 12:53:59;;;;;;;2.20;2.00;;;16.30;99.90;;;;;;4949546;29;20508;-76
2022/11/06 12:56:33;;;;;;;2.87;2.37;;;16.30;99.90;;;;;;4949274;29;20829;-76
2022/11/06 12:59:09;;;;;;;3.60;2.70;;;16.30;99.90;;;;;;4950055;29;20452;-76
2022/11/06 13:01:44;;;;;;;2.20;2.00;;;16.20;99.90;;;;;;4949613;28;20497;-76
2022/11/06 13:04:31;;;;;;;2.27;2.00;;;16.30;99.90;;;;;;4948791;29;20445;-76
2022/11/06 13:07:23;;;;;;;2.30;2.10;;;16.30;99.90;;;;;;4949449;29;20446;-76
2022/11/06 13:09:59;;;;;;;2.37;2.17;;;16.20;99.90;;;;;;4949244;28;20446;-76
2022/11/06 13:12:34;;;;;;;3.50;2.10;;;16.10;99.90;;;;;;4949108;28;20990;-76
2022/11/06 13:15:11;;;;;;;2.20;2.00;;;16.00;99.90;;;;;;4948728;28;20472;-76
2022/11/06 13:17:46;;;;;;;2.50;2.20;;;15.90;99.90;;;;;;4949615;29;20460;-76
2022/11/06 13:20:21;;;;;;;2.40;1.80;;;15.80;99.90;;;;;;4949264;29;20812;-75
2022/11/06 13:22:56;;;;;;;2.70;2.20;;;15.60;99.90;;;;;;4949722;29;20441;-76
2022/11/06 13:25:32;;;;;;;2.87;2.50;;;15.60;99.90;;;;;;4947341;28;21406;-76
2022/11/06 13:28:06;;;;;;;2.77;2.50;;;15.60;99.90;;;;;;4949186;29;20977;-76
2022/11/06 13:30:34;;;;;;;2.77;2.43;;;15.60;99.90;;;;;;4948798;28;20480;-76
2022/11/06 13:33:07;;;;;;;3.03;2.53;;;15.50;99.90;;;;;;4948792;29;20504;-75
2022/11/06 13:35:38;;;;;;;3.40;3.10;;;15.40;99.90;;;;;;4948580;29;20457;-75
2022/11/06 13:38:08;;;;;;;5.13;3.20;;;15.30;99.90;;;;;;4948821;29;20819;-76
2022/11/06 13:40:39;;;;;;;3.10;2.80;;;15.10;99.90;;;;;;4949211;28;20478;-76
2022/11/06 13:43:15;;;;;;;3.10;2.83;;;14.90;99.90;;;;;;4949241;29;20446;-75
2022/11/06 13:45:51;;;;;;;4.90;3.27;;;14.80;99.90;;;;;;4948328;29;20449;-76
2022/11/06 13:48:34;;;;;;;3.77;2.67;;;14.70;99.90;;;;;;4948579;29;20469;-75
2022/11/06 13:51:08;;;;;;;2.80;2.60;;;14.60;99.90;;;;;;4948922;28;20488;-75
2022/11/06 13:53:43;;;;;;;3.80;2.90;;;14.60;99.90;;;;;;4948368;29;20487;-75
2022/11/06 13:56:33;;;;;;;3.43;2.90;;;14.50;99.90;;;;;;4948325;29;20456;-75
2022/11/06 13:59:29;;;;;;;3.20;2.90;;;14.30;99.90;;;;;;4948382;29;20465;-75
2022/11/06 14:02:09;;;;;;;4.00;3.00;;;14.20;99.90;;;;;;4946911;28;20493;-75
2022/11/06 14:05:13;;;;;;;3.60;3.10;;;14.10;99.90;;;;;;4948170;29;20810;-75
2022/11/06 14:07:42;;;;;;;4.00;3.30;;;14.00;99.90;;;;;;4945174;29;20473;-75
2022/11/06 14:10:19;;;;;;;4.97;3.73;;;13.90;99.90;;;;;;4948334;29;20464;-75
2022/11/06 14:12:47;;;;;;;4.77;3.47;;;13.90;99.90;;;;;;4948417;28;20445;-75
2022/11/06 14:15:26;;;;;;;4.00;3.60;;;13.80;99.90;;;;;;4947711;29;20469;-75
2022/11/06 14:17:56;;;;;;;4.43;3.63;;;13.70;99.90;;;;;;4948030;29;20448;-75
2022/11/06 14:20:31;;;;;;;7.23;4.00;;;13.60;99.90;;;;;;4948353;28;20472;-76
2022/11/06 14:23:46;;;;;;;5.07;4.20;;;13.60;99.90;;;;;;4948103;29;20472;-76
2022/11/06 14:26:34;;;;;;;5.97;4.70;;;13.60;99.90;;;;;;4907051;29;20448;-76
2022/11/06 14:29:54;;;;;;;4.10;3.70;;;13.50;99.90;;;;;;4907278;29;20602;-76
2022/11/06 14:32:46;;;;;;;4.83;3.57;;;13.40;99.90;;;;;;4946068;28;20481;-76
2022/11/06 14:35:49;;;;;;;4.87;3.90;;;13.30;99.90;;;;;;4946923;29;20449;-76
2022/11/06 14:38:30;;;;;;;6.53;2.90;;;13.20;99.90;;;;;;4948028;29;20456;-77
2022/11/06 14:40:57;;;;;;;3.50;3.17;;;13.10;99.90;;;;;;4947984;28;20477;-75
2022/11/06 14:43:28;;;;;;;3.47;3.10;;;13.10;99.90;;;;;;4948154;29;20461;-75
2022/11/06 14:45:59;;;;;;;4.37;3.43;;;13.00;99.90;;;;;;4947614;29;20453;-76
2022/11/06 14:48:30;;;;;;;3.43;2.90;;;12.90;99.90;;;;;;4947757;29;20461;-76
2022/11/06 14:50:59;;;;;;;3.50;3.20;;;12.80;99.90;;;;;;4947487;28;20480;-76
2022/11/06 14:53:29;;;;;;;4.33;3.80;;;12.70;99.90;;;;;;4947556;29;20499;-76
2022/11/06 14:55:58;;;;;;;5.60;4.30;;;12.60;99.90;;;;;;4946820;29;21463;-76
2022/11/06 14:58:29;;;;;;;4.90;4.00;;;12.50;99.90;;;;;;4947729;29;20458;-75
2022/11/06 15:00:58;;;;;;;3.93;3.50;;;12.40;99.90;;;;;;4947296;28;20499;-75
2022/11/06 15:03:35;;;;;;;7.90;4.47;;;12.30;99.90;;;;;;4947290;29;20464;-75
2022/11/06 15:06:07;;;;;;;8.83;6.70;;;12.30;99.90;;;;;;4947092;29;20461;-76
2022/11/06 15:08:57;;;;;;;5.53;4.93;;;12.30;99.90;;;;;;4947665;29;20450;-75
2022/11/06 15:11:50;;;;;;;4.90;3.93;;;12.20;99.90;;;;;;4947548;28;20858;-75
2022/11/06 15:14:55;;;;;;;5.57;4.40;;;12.10;99.90;;;;;;4946449;29;20493;-75
2022/11/06 15:17:25;;;;;;;4.53;3.93;;;12.00;99.90;;;;;;4947701;29;20464;-75
2022/11/06 15:20:14;;;;;;;7.83;4.87;;;11.90;99.90;;;;;;4947500;28;20468;-75
2022/11/06 15:22:51;;;;;;;4.77;4.27;;;11.80;99.90;;;;;;4947529;29;21220;-75
2022/11/06 15:25:21;;;;;;;6.37;4.90;;;11.80;99.90;;;;;;4947161;29;20446;-76
2022/11/06 15:27:56;;;;;;;6.27;4.40;;;11.70;99.90;;;;;;4947832;29;20449;-75
2022/11/06 15:30:23;;;;;;;7.60;5.37;;;11.60;99.90;;;;;;4947327;28;20449;-75
2022/11/06 15:32:53;;;;;;;6.80;6.10;;;11.60;99.90;;;;;;4947026;29;20465;-75
2022/11/06 15:35:24;;;;;;;6.37;5.70;;;11.60;99.90;;;;;;4946524;29;21122;-75
2022/11/06 15:37:54;;;;;;;5.93;5.33;;;11.60;99.90;;;;;;4947319;29;20532;-74
2022/11/06 15:40:32;;;;;;;6.77;5.50;;;11.60;99.90;;;;;;4946987;28;20958;-75
2022/11/06 15:43:04;;;;;;;6.00;5.40;;;11.50;99.90;;;;;;4947159;29;20468;-75
2022/11/06 15:45:31;;;;;;;6.40;5.53;;;11.60;99.90;;;;;;4946573;29;20454;-74
2022/11/06 15:48:00;;;;;;;8.93;6.30;;;11.50;99.90;;;;;;4947924;28;20461;-74
2022/11/06 15:50:30;;;;;;;8.43;6.13;;;11.40;99.90;;;;;;4950984;28;20476;-74
2022/11/06 15:53:16;;;;;;;7.00;6.00;;;11.40;99.90;;;;;;4950991;29;20475;-75
2022/11/06 15:55:49;;;;;;;8.57;6.13;;;11.30;99.90;;;;;;4949849;29;20453;-75
2022/11/06 15:58:26;;;;;;;8.13;6.30;;;11.30;99.90;;;;;;4950905;29;20468;-75
2022/11/06 16:00:53;;;;;;;7.70;5.90;;;11.20;99.90;;;;;;4950417;28;21024;-75
2022/11/06 16:03:22;;;;;;;9.30;6.63;;;11.20;99.90;;;;;;4950936;29;20461;-75
2022/11/06 16:05:50;;;;;;;7.90;6.87;;;11.10;99.90;;;;;;4950316;29;20455;-75
2022/11/06 16:08:19;;;;;;;10.60;7.23;;;11.10;99.90;;;;;;4950535;29;20943;-76
2022/11/06 16:10:49;;;;;;;11.13;7.40;;;11.00;99.90;;;;;;4950615;28;20485;-75
2022/11/06 16:13:19;;;;;;;9.97;7.63;;;11.00;99.90;;;;;;4950585;29;20453;-65
2022/11/06 16:15:52;;;;;;;11.50;6.93;;;10.90;99.90;;;;;;4949738;29;20457;-75
2022/11/06 16:18:23;;;;;;;9.27;6.87;;;10.90;99.90;;;;;;4950443;29;20459;-75
2022/11/06 16:20:55;;;;;;;7.67;6.13;;;10.80;99.90;;;;;;4950194;28;20476;-75
2022/11/06 16:23:25;;;;;;;8.90;7.27;;;10.80;99.90;;;;;;4950136;29;20992;-75
2022/11/06 16:25:58;;;;;;;9.13;6.93;;;10.80;99.90;;;;;;4949742;28;20453;-75
2022/11/06 16:28:27;;;;;;;8.27;6.70;;;10.80;99.90;;;;;;4950534;29;20437;-75
2022/11/06 16:31:00;;;;;;;8.17;5.90;;;10.80;99.90;;;;;;4950486;28;20489;-75
2022/11/06 16:33:27;;;;;;;10.00;7.20;;;10.70;99.90;;;;;;4950191;28;20480;-75
2022/11/06 16:36:06;;;;;;;10.57;8.03;;;10.70;99.90;;;;;;4949716;28;20468;-75
2022/11/06 16:38:42;;;;;;;10.30;7.33;;;10.70;99.90;;;;;;4950097;28;21042;-74
2022/11/06 16:41:11;;;;;;;8.47;7.27;;;10.70;99.90;;;;;;4949797;28;21064;-76
2022/11/06 16:43:38;;;;;;;7.93;6.10;;;10.70;99.90;;;;;;4950268;28;20965;-77
2022/11/06 16:46:07;;;;;;;10.80;6.70;;;10.60;99.90;;;;;;4949462;28;20465;-75
2022/11/06 16:48:41;;;;;;;8.37;6.73;;;10.60;99.90;;;;;;4949842;28;20468;-75
2022/11/06 16:51:12;;;;;;;9.70;7.60;;;10.60;99.90;;;;;;4949825;28;20486;-75
2022/11/06 16:53:53;;;;;;;11.50;8.47;;;10.60;99.90;;;;;;4949920;28;20467;-75
2022/11/06 16:56:26;;;;;;;12.20;9.10;;;10.50;99.90;;;;;;4949329;28;20516;-75
2022/11/06 16:59:01;;;;;;;13.70;10.60;;;10.50;99.90;;;;;;4949749;28;20457;-75
2022/11/06 17:01:36;;;;;;;12.30;9.03;;;10.50;99.90;;;;;;4949541;28;21023;-75
2022/11/06 17:04:04;;;;;;;12.13;9.10;;;10.50;99.90;;;;;;4949526;28;20437;-75
2022/11/06 17:06:34;;;;;;;9.10;7.80;;;10.50;99.90;;;;;;4949266;28;20468;-74
2022/11/06 17:09:06;;;;;;;12.37;8.77;;;10.50;99.90;;;;;;4949425;28;20985;-74
2022/11/06 17:11:32;;;;;;;7.83;6.53;;;10.50;99.90;;;;;;4949559;28;20478;-74
2022/11/06 17:14:03;;;;;;;8.37;6.97;;;10.50;99.90;;;;;;4948755;29;20516;-74
2022/11/06 17:16:30;;;;;;;7.20;6.33;;;10.50;99.90;;;;;;4949248;29;20462;-75
2022/11/06 17:18:58;;;;;;;15.03;8.57;;;10.40;99.90;;;;;;4949172;28;20521;-68
2022/11/06 17:21:26;;;;;;;12.40;9.10;;;10.40;99.90;;;;;;4949542;28;20489;-68
2022/11/06 17:23:54;;;;;;;11.13;8.63;;;10.30;99.90;;;;;;4949713;28;20464;-74
2022/11/06 17:26:24;;;;;;;9.20;7.13;;;10.30;99.90;;;;;;4949198;29;20501;-75
2022/11/06 17:28:51;;;;;;;10.97;7.87;;;10.30;99.90;;;;;;4949246;29;20977;-75
2022/11/06 17:31:22;;;;;;;12.37;9.23;;;10.40;99.90;;;;;;4949038;28;20618;-74
2022/11/06 17:33:50;;;;;;;17.37;11.10;;;10.40;99.90;;;;;;4949171;28;20946;-75
2022/11/06 17:36:19;;;;;;;12.60;10.00;;;10.40;99.90;;;;;;4948532;28;20461;-75
2022/11/06 17:38:47;;;;;;;11.73;9.47;;;10.30;99.90;;;;;;4949055;28;20461;-75
2022/11/06 17:41:28;;;;;;;11.23;8.27;;;10.40;99.90;;;;;;4948890;28;20844;-75
2022/11/06 17:43:55;;;;;;;13.70;9.50;;;10.40;99.90;;;;;;4949151;28;20465;-75
2022/11/06 17:46:22;;;;;;;10.20;8.47;;;10.40;99.90;;;;;;4948810;28;20472;-75
2022/11/06 17:48:49;;;;;;;7.70;6.90;;;10.40;99.90;;;;;;4949089;28;20464;-74
2022/11/06 17:54:00;;;;;;;11.37;7.53;;;10.40;99.90;;;;;;4948119;29;20437;-74
2022/11/06 17:56:28;;;;;;;11.90;9.67;;;10.40;99.90;;;;;;4948441;28;20965;-75
2022/11/06 17:58:55;;;;;;;14.40;10.60;;;10.40;99.90;;;;;;4948987;28;20488;-75
2022/11/06 18:01:22;;;;;;;17.73;13.43;;;10.40;99.90;;;;;;4948359;28;20489;-74
2022/11/06 18:03:48;;;;;;;13.20;10.30;;;10.40;99.90;;;;;;4948556;28;20470;-75
2022/11/06 18:06:16;;;;;;;12.57;10.30;;;10.40;99.90;;;;;;4947991;28;20952;-75
2022/11/06 18:08:44;;;;;;;12.43;9.97;;;10.30;99.90;;;;;;4948642;28;20841;-75
2022/11/06 18:11:11;;;;;;;11.53;8.50;;;10.30;99.90;;;;;;4947507;28;20830;-75